Time;durP1;ratioP1;P1;durP2;ratioP2;P2;SDS_P1;SDS_P2;PMS_P1;PMS_P2;Temp;Humidity;BMP_temperature;BMP_pressure;BME280_temperature;BME280_humidity;BME280_pressure;Samples;Min_cycle;Max_cycle;Signal;HPM_P1;HPM_P2
2022/12/07 00:01:13;;;;;;;0.30;0.30;;;;;;;4.14;96.10;102025.50;5077876;27;97202;-32
2022/12/07 00:03:39;;;;;;;0.38;0.32;;;;;;;4.17;96.15;102028.16;5059388;27;99568;-31
2022/12/07 00:06:06;;;;;;;0.30;0.30;;;;;;;4.17;96.24;102046.00;5059310;27;96586;-31
2022/12/07 00:08:33;;;;;;;0.03;0.03;;;;;;;4.17;96.22;102049.59;5059201;27;96829;-30
2022/12/07 00:11:17;;;;;;;0.47;0.38;;;;;;;4.18;96.56;102039.75;5057957;27;101172;-31
2022/12/07 00:13:42;;;;;;;0.25;0.25;;;;;;;4.19;96.93;102041.50;5077496;27;97569;-31
2022/12/07 00:16:11;;;;;;;0.00;0.00;;;;;;;4.22;96.64;102025.41;5077741;27;96573;-32
2022/12/07 00:18:37;;;;;;;0.20;0.20;;;;;;;4.24;97.14;102029.81;5058627;27;96838;-31
2022/12/07 00:21:05;;;;;;;0.10;0.10;;;;;;;4.22;97.16;102020.91;5077217;27;97984;-32
2022/12/07 00:23:31;;;;;;;0.10;0.10;;;;;;;4.24;96.64;102018.19;5058483;27;101225;-32
2022/12/07 00:26:23;;;;;;;0.25;0.25;;;;;;;4.23;96.28;102017.31;5077831;27;96444;-31
2022/12/07 00:28:50;;;;;;;1.60;0.20;;;;;;;4.23;96.23;102017.31;5077224;27;96820;-33
2022/12/07 00:31:17;;;;;;;0.47;0.30;;;;;;;4.20;96.31;102014.69;5058585;27;101517;-31
2022/12/07 00:33:42;;;;;;;0.20;0.20;;;;;;;4.19;96.07;102020.94;5058194;27;100914;-31
2022/12/07 00:36:11;;;;;;;0.25;0.17;;;;;;;4.14;96.66;102009.41;5076927;27;96670;-31
2022/12/07 00:38:38;;;;;;;0.60;0.52;;;;;;;4.13;96.09;102007.66;5058823;27;96860;-31
2022/12/07 00:41:15;;;;;;;0.55;0.40;;;;;;;4.10;96.25;102005.03;5058419;27;100578;-31
2022/12/07 00:43:42;;;;;;;0.28;0.20;;;;;;;4.06;96.17;102008.66;5076840;27;99158;-31
2022/12/07 00:46:08;;;;;;;0.38;0.25;;;;;;;4.00;96.01;101998.00;5058370;27;96618;-30
2022/12/07 00:48:34;;;;;;;2.35;0.57;;;;;;;3.96;95.93;102007.03;5077430;27;96894;-30
2022/12/07 00:50:59;;;;;;;0.00;0.00;;;;;;;3.92;96.21;102010.66;5058172;27;100755;-30
2022/12/07 00:53:26;;;;;;;0.65;0.35;;;;;;;3.88;95.87;102015.16;5077305;27;98349;-31
2022/12/07 00:55:52;;;;;;;0.40;0.20;;;;;;;3.86;96.01;102006.25;5058494;27;96629;-30
2022/12/07 00:58:18;;;;;;;0.50;0.30;;;;;;;3.80;96.08;102001.88;5058488;27;96776;-31
2022/12/07 01:00:43;;;;;;;4.63;0.25;;;;;;;3.77;96.31;102006.44;5076188;27;97442;-31
2022/12/07 01:03:11;;;;;;;0.52;0.40;;;;;;;3.74;96.13;102003.78;5076602;27;98264;-32
2022/12/07 01:05:37;;;;;;;0.65;0.35;;;;;;;3.70;96.28;102005.63;5076826;27;96587;-31
2022/12/07 01:08:03;;;;;;;0.38;0.30;;;;;;;3.67;96.14;102008.34;5076973;27;96959;-31
2022/12/07 01:10:30;;;;;;;0.70;0.45;;;;;;;3.64;95.89;102019.09;5057939;27;100605;-31
2022/12/07 01:12:56;;;;;;;0.30;0.25;;;;;;;3.60;96.19;102010.22;5058004;27;100787;-31
2022/12/07 01:15:22;;;;;;;0.32;0.30;;;;;;;3.55;96.06;102004.06;5076500;27;97719;-31
2022/12/07 01:17:47;;;;;;;0.55;0.30;;;;;;;3.56;95.95;102019.22;5058539;27;97326;-31
2022/12/07 01:20:13;;;;;;;0.35;0.30;;;;;;;3.55;95.94;102019.22;5057222;27;101072;-31
2022/12/07 01:22:40;;;;;;;0.10;0.10;;;;;;;3.48;95.95;102021.13;5056667;27;101329;-31
2022/12/07 01:25:07;;;;;;;0.20;0.10;;;;;;;3.48;96.05;102018.44;5057043;27;96839;-31
2022/12/07 01:27:33;;;;;;;0.00;0.00;;;;;;;3.47;96.07;102019.31;5058178;27;96878;-31
2022/12/07 01:29:59;;;;;;;0.32;0.05;;;;;;;3.45;96.19;102004.19;5057380;27;101010;-32
2022/12/07 01:32:25;;;;;;;0.17;0.13;;;;;;;3.44;96.22;102010.47;5057728;27;100906;-31
2022/12/07 01:34:50;;;;;;;0.45;0.20;;;;;;;3.41;95.88;102008.72;5076417;27;96636;-31
2022/12/07 01:37:15;;;;;;;0.08;0.08;;;;;;;3.37;95.82;101996.25;5076530;27;96808;-31
2022/12/07 01:39:41;;;;;;;0.50;0.30;;;;;;;3.33;95.99;102006.09;5076074;27;97871;-31
2022/12/07 01:42:10;;;;;;;0.28;0.08;;;;;;;3.32;95.83;102006.16;5076135;27;99536;-31
2022/12/07 01:45:14;;;;;;;0.10;0.10;;;;;;;3.31;95.38;102015.06;5057632;27;96593;-30
2022/12/07 01:47:41;;;;;;;0.00;0.00;;;;;;;3.25;95.39;102002.66;5052424;27;96852;-31
2022/12/07 01:50:07;;;;;;;4.78;0.30;;;;;;;3.22;95.85;102013.41;5056959;27;100831;-32
2022/12/07 01:52:35;;;;;;;0.68;0.15;;;;;;;3.23;95.66;102019.66;5057195;27;102377;-32
2022/12/07 01:55:05;;;;;;;0.30;0.10;;;;;;;3.18;95.17;102009.00;5057468;27;96787;-31
2022/12/07 01:57:34;;;;;;;0.30;0.17;;;;;;;3.15;95.35;102009.03;5057560;27;96889;-31
2022/12/07 02:00:00;;;;;;;0.55;0.28;;;;;;;3.12;95.75;102011.72;5057204;27;101246;-31
2022/12/07 02:02:36;;;;;;;0.00;0.00;;;;;;;3.10;95.35;102014.44;5075819;27;97347;-30
2022/12/07 02:05:04;;;;;;;0.52;0.22;;;;;;;3.08;95.52;102023.41;5075792;27;96623;-31
2022/12/07 02:07:32;;;;;;;0.43;0.20;;;;;;;3.07;95.46;102019.81;5057809;27;96922;-31
2022/12/07 02:10:11;;;;;;;0.00;0.00;;;;;;;3.08;95.59;102032.31;5057185;27;101423;-31
2022/12/07 02:12:36;;;;;;;0.10;0.10;;;;;;;3.09;95.51;102022.47;5057235;27;101715;-31
2022/12/07 02:15:02;;;;;;;0.10;0.00;;;;;;;3.12;95.86;102001.03;5075557;27;96593;-31
2022/12/07 02:17:47;;;;;;;0.00;0.00;;;;;;;3.13;95.81;102003.69;5075930;27;96641;-31
2022/12/07 02:20:21;;;;;;;0.20;0.10;;;;;;;3.14;96.28;102004.56;5075128;27;97405;-31
2022/12/07 02:23:17;;;;;;;0.63;0.22;;;;;;;3.16;96.16;102002.75;5074852;27;99234;-31
2022/12/07 02:26:10;;;;;;;0.00;0.00;;;;;;;3.14;95.89;102005.44;5075917;27;96562;-30
2022/12/07 02:28:39;;;;;;;0.25;0.08;;;;;;;3.14;96.23;101997.41;5057355;27;96675;-31
2022/12/07 02:31:19;;;;;;;0.00;0.00;;;;;;;3.10;96.22;101987.69;5056857;27;101459;-31
2022/12/07 02:34:09;;;;;;;0.10;0.10;;;;;;;3.10;95.89;101989.44;5075900;27;97978;-31
2022/12/07 02:36:42;;;;;;;0.50;0.22;;;;;;;3.05;95.52;101988.63;5082520;27;96780;-31
2022/12/07 02:39:13;;;;;;;0.00;0.00;;;;;;;3.03;95.91;101977.03;5064101;27;96762;-31
2022/12/07 02:41:49;;;;;;;0.10;0.05;;;;;;;2.98;95.61;101983.34;5063163;27;100499;-31
2022/12/07 02:44:18;;;;;;;0.10;0.05;;;;;;;2.99;95.42;101997.63;5063376;27;101871;-31
2022/12/07 02:46:50;;;;;;;0.10;0.10;;;;;;;2.95;95.05;101995.88;5063564;27;96510;-31
2022/12/07 02:49:16;;;;;;;0.25;0.05;;;;;;;2.95;95.47;102004.78;5063742;27;96660;-32
2022/12/07 02:51:44;;;;;;;0.13;0.00;;;;;;;2.96;95.56;102000.34;5063401;27;98875;-31
2022/12/07 02:54:14;;;;;;;0.00;0.00;;;;;;;2.94;95.67;101999.47;5063196;27;100986;-31
2022/12/07 02:56:48;;;;;;;0.10;0.10;;;;;;;2.94;95.86;102000.34;5082375;27;96650;-31
2022/12/07 02:59:32;;;;;;;0.30;0.20;;;;;;;2.97;95.66;102002.97;5063937;27;96693;-33
2022/12/07 03:02:10;;;;;;;0.00;0.00;;;;;;;2.97;95.85;102008.31;5081919;27;97502;-31
2022/12/07 03:04:54;;;;;;;0.00;0.00;;;;;;;3.00;95.93;102010.06;5082028;27;98325;-32
2022/12/07 03:08:13;;;;;;;0.00;0.00;;;;;;;3.00;96.04;102003.84;5081381;27;96454;-30
2022/12/07 03:10:48;;;;;;;0.08;0.05;;;;;;;2.98;95.77;101998.53;4998393;28;96620;-31
2022/12/07 03:13:30;;;;;;;0.35;0.15;;;;;;;2.97;95.92;102005.66;5069490;27;98462;-31
2022/12/07 03:16:14;;;;;;;0.13;0.10;;;;;;;2.93;96.10;102001.25;5062961;27;100531;-32
2022/12/07 03:18:55;;;;;;;0.20;0.20;;;;;;;2.91;95.58;101997.72;5063110;27;96723;-31
2022/12/07 03:21:26;;;;;;;0.10;0.10;;;;;;;2.89;95.87;101999.50;5082209;27;96459;-31
2022/12/07 03:23:56;;;;;;;0.20;0.10;;;;;;;2.88;95.62;102002.19;5062808;27;101008;-31
2022/12/07 03:26:26;;;;;;;0.00;0.00;;;;;;;2.89;95.63;101990.59;5063291;27;101044;-31
2022/12/07 03:28:58;;;;;;;0.00;0.00;;;;;;;2.90;95.82;101992.38;5063162;27;96533;-33
2022/12/07 03:31:34;;;;;;;1.20;0.27;;;;;;;2.92;95.93;101986.09;5063319;27;96705;-31
2022/12/07 03:34:06;;;;;;;0.22;0.10;;;;;;;2.93;96.14;101979.84;5081172;27;97559;-32
2022/12/07 03:36:46;;;;;;;0.00;0.00;;;;;;;2.96;95.94;101981.59;5062789;27;99734;-31
2022/12/07 03:39:20;;;;;;;0.00;0.00;;;;;;;2.96;96.35;101985.16;5063033;27;96792;-31
2022/12/07 03:41:46;;;;;;;0.10;0.10;;;;;;;2.98;96.49;101988.72;5063076;27;96727;-31
2022/12/07 03:44:13;;;;;;;0.35;0.35;;;;;;;3.03;96.42;101977.03;5081484;27;97928;-31
2022/12/07 03:46:58;;;;;;;0.40;0.40;;;;;;;3.06;96.24;101977.03;5078424;27;97735;-31
2022/12/07 03:49:38;;;;;;;0.00;0.00;;;;;;;3.08;95.91;101978.78;5078039;27;96665;-31
2022/12/07 03:52:27;;;;;;;0.13;0.13;;;;;;;3.08;96.17;101977.91;5059906;27;96715;-31
2022/12/07 03:55:16;;;;;;;0.22;0.15;;;;;;;3.06;96.01;101980.59;5059143;27;101313;-31
2022/12/07 03:57:44;;;;;;;0.05;0.03;;;;;;;3.04;96.36;101981.50;5077479;27;99211;-31
2022/12/07 04:00:11;;;;;;;0.00;0.00;;;;;;;3.00;95.99;101972.63;5058884;27;96635;-31
2022/12/07 04:02:36;;;;;;;2.92;0.30;;;;;;;2.99;96.27;101973.53;5059417;27;96853;-31
2022/12/07 04:05:03;;;;;;;0.13;0.10;;;;;;;2.97;96.32;101975.34;5077394;27;99503;-31
2022/12/07 04:07:28;;;;;;;1.00;0.30;;;;;;;2.98;95.92;101979.81;5058908;27;102428;-31
2022/12/07 04:09:54;;;;;;;0.75;0.30;;;;;;;2.95;96.26;101970.00;5077981;27;96607;-31
2022/12/07 04:12:21;;;;;;;0.10;0.05;;;;;;;2.92;96.17;101972.72;5059130;27;96861;-32
2022/12/07 04:14:46;;;;;;;0.00;0.00;;;;;;;2.88;95.74;101970.09;5058959;27;101077;-31
2022/12/07 04:17:11;;;;;;;0.00;0.00;;;;;;;2.87;95.79;101977.22;5077881;27;97224;-31
2022/12/07 04:19:37;;;;;;;0.00;0.00;;;;;;;2.84;95.94;101971.94;5077209;27;97299;-31
2022/12/07 04:22:04;;;;;;;0.05;0.00;;;;;;;2.81;95.91;101971.94;5077134;27;96710;-32
2022/12/07 04:24:29;;;;;;;5.47;0.22;;;;;;;2.78;96.16;101971.97;5076744;27;98908;-30
2022/12/07 04:26:55;;;;;;;0.00;0.00;;;;;;;2.78;96.10;101968.44;5077071;27;98373;-31
2022/12/07 04:29:21;;;;;;;0.30;0.17;;;;;;;2.75;95.92;101969.34;5077725;27;96454;-31
2022/12/07 04:31:47;;;;;;;0.00;0.00;;;;;;;2.76;96.10;101976.47;5077622;27;96784;-31
2022/12/07 04:34:13;;;;;;;0.05;0.05;;;;;;;2.72;95.92;101972.06;5058569;27;100866;-31
2022/12/07 04:36:39;;;;;;;0.00;0.00;;;;;;;2.73;96.01;101971.16;5058479;27;100774;-31
2022/12/07 04:39:13;;;;;;;1.10;0.30;;;;;;;2.70;95.84;101960.50;5058821;27;96603;-31
2022/12/07 04:41:38;;;;;;;0.00;0.00;;;;;;;2.73;96.32;101950.63;5059306;27;96796;-31
2022/12/07 04:44:07;;;;;;;0.00;0.00;;;;;;;2.75;95.94;101953.31;5076948;27;98857;-31
2022/12/07 04:46:32;;;;;;;0.20;0.05;;;;;;;2.75;96.14;101951.50;5058385;27;100928;-32
2022/12/07 04:48:58;;;;;;;0.10;0.05;;;;;;;2.76;96.07;101955.06;5058111;27;96543;-30
2022/12/07 04:51:26;;;;;;;0.22;0.15;;;;;;;2.80;95.61;101950.56;5077363;27;96721;-31
2022/12/07 04:53:52;;;;;;;1.20;0.32;;;;;;;2.76;95.99;101947.03;5058285;27;101090;-31
2022/12/07 04:56:18;;;;;;;0.00;0.00;;;;;;;2.78;95.79;101952.38;5076457;27;98872;-31
2022/12/07 04:58:46;;;;;;;0.10;0.10;;;;;;;2.74;95.72;101938.13;5058371;27;96641;-31
2022/12/07 05:01:12;;;;;;;0.25;0.17;;;;;;;2.73;95.81;101941.72;5058478;27;96843;-31
2022/12/07 05:03:37;;;;;;;0.00;0.00;;;;;;;2.73;95.71;101955.09;5058346;27;100688;-31
2022/12/07 05:06:04;;;;;;;0.28;0.15;;;;;;;2.73;95.60;101950.63;5058524;27;100840;-31
2022/12/07 05:08:29;;;;;;;0.20;0.10;;;;;;;2.70;95.90;101934.63;5058377;27;96664;-31
2022/12/07 05:10:54;;;;;;;0.45;0.32;;;;;;;2.70;96.29;101947.13;5077136;27;96808;-33
2022/12/07 05:13:20;;;;;;;0.00;0.00;;;;;;;2.70;96.02;101944.44;5076020;27;97897;-31
2022/12/07 05:15:47;;;;;;;0.00;0.00;;;;;;;2.71;95.91;101935.50;5076535;27;97348;-32
2022/12/07 05:18:12;;;;;;;0.00;0.00;;;;;;;2.71;95.76;101938.19;5058022;27;96537;-31
2022/12/07 05:20:38;;;;;;;0.43;0.20;;;;;;;2.70;95.61;101948.00;5076481;27;98421;-31
2022/12/07 05:23:04;;;;;;;0.00;0.00;;;;;;;2.66;95.83;101942.69;5057096;27;100993;-31
2022/12/07 05:25:29;;;;;;;0.57;0.25;;;;;;;2.64;95.74;101949.84;5076079;27;99047;-31
2022/12/07 05:27:56;;;;;;;0.00;0.00;;;;;;;2.58;95.77;101947.25;5076751;27;96504;-32
2022/12/07 05:30:22;;;;;;;0.00;0.00;;;;;;;2.57;95.86;101945.47;5058444;27;96954;-30
2022/12/07 05:32:47;;;;;;;0.00;0.00;;;;;;;2.53;95.70;101945.50;5057542;27;100867;-31
2022/12/07 05:35:13;;;;;;;0.15;0.08;;;;;;;2.50;95.13;101944.66;5076306;27;97308;-31
2022/12/07 05:37:38;;;;;;;0.00;0.00;;;;;;;2.44;95.17;101947.41;5075600;27;96578;-31
2022/12/07 05:40:05;;;;;;;0.10;0.10;;;;;;;2.43;95.56;101946.53;5076300;27;96890;-31
2022/12/07 05:42:30;;;;;;;0.00;0.00;;;;;;;2.41;95.47;101945.66;5075799;27;100753;-31
2022/12/07 05:44:55;;;;;;;0.00;0.00;;;;;;;2.40;95.24;101942.97;5076025;27;99606;-31
2022/12/07 05:47:21;;;;;;;0.32;0.20;;;;;;;2.38;95.09;101947.44;5076232;27;96562;-31
2022/12/07 05:49:46;;;;;;;0.00;0.00;;;;;;;2.36;95.67;101939.47;5076470;27;96731;-31
2022/12/07 05:52:11;;;;;;;0.00;0.00;;;;;;;2.35;95.06;101940.34;5076062;27;97885;-32
2022/12/07 05:54:37;;;;;;;0.00;0.00;;;;;;;2.31;95.28;101927.91;5076251;27;98037;-31
2022/12/07 05:57:03;;;;;;;0.00;0.00;;;;;;;2.28;95.36;101930.63;5075889;27;96609;-31
2022/12/07 05:59:28;;;;;;;2.92;0.32;;;;;;;2.24;95.54;101935.13;5057739;27;96823;-31
2022/12/07 06:02:05;;;;;;;0.00;0.00;;;;;;;2.24;95.32;101935.13;5075343;27;97936;-31
2022/12/07 06:04:34;;;;;;;0.43;0.40;;;;;;;2.21;95.54;101939.59;5057255;27;100978;-32
2022/12/07 06:06:59;;;;;;;0.00;0.00;;;;;;;2.19;95.17;101938.72;5057217;27;96768;-32
2022/12/07 06:09:27;;;;;;;0.05;0.00;;;;;;;2.15;95.46;101929.84;5075368;27;96754;-31
2022/12/07 06:14:37;;;;;;;0.00;0.00;;;;;;;2.11;95.03;101931.66;5075710;27;97177;-31
2022/12/07 06:17:03;;;;;;;0.00;0.00;;;;;;;2.07;94.75;101926.34;5075986;27;96534;-31
2022/12/07 06:19:28;;;;;;;0.25;0.17;;;;;;;2.05;94.82;101926.38;5075205;27;96793;-31
2022/12/07 06:21:54;;;;;;;0.00;0.00;;;;;;;2.02;94.54;101929.06;5074781;27;97845;-33
2022/12/07 06:24:19;;;;;;;0.00;0.00;;;;;;;2.02;94.62;101933.53;5057199;27;101242;-31
2022/12/07 06:26:45;;;;;;;2.20;0.22;;;;;;;1.94;95.04;101933.59;5075284;27;96503;-31
2022/12/07 06:29:11;;;;;;;0.05;0.05;;;;;;;1.94;94.71;101932.72;5057290;27;96814;-31
2022/12/07 06:31:37;;;;;;;3.17;0.57;;;;;;;1.97;94.90;101946.03;5056937;27;101452;-31
2022/12/07 06:34:06;;;;;;;0.17;0.17;;;;;;;1.96;94.93;101947.84;5075166;27;97780;-31
2022/12/07 06:36:31;;;;;;;0.08;0.08;;;;;;;1.96;94.79;101947.84;5057020;27;96616;-31
2022/12/07 06:38:57;;;;;;;0.20;0.10;;;;;;;1.94;95.11;101943.41;5075621;27;96758;-31
2022/12/07 06:41:22;;;;;;;0.10;0.03;;;;;;;1.94;94.80;101944.28;5075370;27;98149;-32
2022/12/07 06:43:48;;;;;;;0.35;0.10;;;;;;;1.90;94.79;101945.19;5075524;27;98323;-32
2022/12/07 06:46:14;;;;;;;0.22;0.20;;;;;;;1.92;94.94;101941.63;5075600;27;96556;-31
2022/12/07 06:48:40;;;;;;;0.13;0.13;;;;;;;1.87;94.75;101950.56;5056884;27;96843;-30
2022/12/07 06:51:05;;;;;;;0.77;0.20;;;;;;;1.87;94.67;101943.44;5056080;27;101419;-31
2022/12/07 06:53:31;;;;;;;1.15;0.25;;;;;;;1.83;94.98;101940.81;5075122;27;97370;-31
2022/12/07 06:55:56;;;;;;;0.00;0.00;;;;;;;1.86;94.88;101943.44;5075458;27;96660;-31
2022/12/07 06:58:21;;;;;;;2.17;0.28;;;;;;;1.81;94.39;101945.25;5056760;27;96906;-32
2022/12/07 07:00:49;;;;;;;0.47;0.20;;;;;;;1.80;94.47;101951.53;5075450;27;97326;-31
2022/12/07 07:03:14;;;;;;;1.17;0.43;;;;;;;1.80;94.68;101954.19;5056307;27;98941;-31
2022/12/07 07:05:40;;;;;;;0.50;0.47;;;;;;;1.78;95.22;101948.84;5075373;27;96512;-31
2022/12/07 07:08:05;;;;;;;0.03;0.03;;;;;;;1.79;95.10;101950.66;5075366;27;96817;-31
2022/12/07 07:10:30;;;;;;;0.05;0.05;;;;;;;1.81;94.79;101955.94;5074898;27;97908;-30
2022/12/07 07:12:56;;;;;;;0.52;0.43;;;;;;;1.77;94.97;101954.22;5074841;27;97853;-32
2022/12/07 07:15:21;;;;;;;0.15;0.13;;;;;;;1.81;95.67;101959.53;5074575;27;96653;-31
2022/12/07 07:17:47;;;;;;;0.32;0.32;;;;;;;1.87;95.53;101959.47;5074949;27;97198;-31
2022/12/07 07:20:13;;;;;;;2.72;1.67;;;;;;;1.92;95.88;101957.63;5074347;27;97583;-31
2022/12/07 07:22:39;;;;;;;11.13;3.95;;;;;;;1.95;96.01;101954.06;5076385;27;97930;-32
2022/12/07 07:25:04;;;;;;;21.20;7.50;;;;;;;1.97;95.87;101951.38;5078225;27;96614;-31
2022/12/07 07:27:29;;;;;;;18.55;6.40;;;;;;;1.97;95.29;101949.59;5078613;27;96805;-32
2022/12/07 07:29:55;;;;;;;12.23;6.07;;;;;;;1.98;95.44;101956.72;5077834;27;98358;-32
2022/12/07 07:32:21;;;;;;;11.88;4.97;;;;;;;1.97;95.93;101952.25;5078346;27;96704;-32
2022/12/07 07:34:47;;;;;;;7.45;2.17;;;;;;;1.98;95.33;101951.38;5078449;27;97221;-31
2022/12/07 07:37:12;;;;;;;2.72;1.95;;;;;;;1.98;95.56;101955.81;5078484;27;96731;-31
2022/12/07 07:39:38;;;;;;;0.80;0.63;;;;;;;1.97;95.03;101954.94;5059095;27;101345;-31
2022/12/07 07:42:04;;;;;;;1.05;0.80;;;;;;;1.90;95.21;101951.41;5077598;27;99191;-31
2022/12/07 07:44:29;;;;;;;3.35;1.33;;;;;;;1.88;95.35;101947.91;5078089;27;96533;-31
2022/12/07 07:46:54;;;;;;;0.85;0.73;;;;;;;1.91;95.17;101949.66;5077944;27;96822;-30
2022/12/07 07:49:20;;;;;;;3.05;1.42;;;;;;;1.88;95.18;101950.56;5078039;27;97360;-31
2022/12/07 07:51:45;;;;;;;1.95;1.00;;;;;;;1.89;95.40;101951.44;5077794;27;97444;-33
2022/12/07 07:54:11;;;;;;;1.48;0.85;;;;;;;1.91;95.27;101950.53;5078170;27;96514;-31
2022/12/07 07:56:36;;;;;;;4.22;0.75;;;;;;;1.90;95.60;101954.09;5078239;27;96814;-31
2022/12/07 07:59:02;;;;;;;0.70;0.55;;;;;;;1.94;95.34;101963.00;5077831;27;97484;-31
2022/12/07 08:01:27;;;;;;;0.10;0.10;;;;;;;1.92;95.17;101954.09;5077692;27;97891;-31
2022/12/07 08:03:52;;;;;;;0.68;0.38;;;;;;;1.96;95.44;101957.63;5077422;27;96454;-32
2022/12/07 08:06:18;;;;;;;0.17;0.17;;;;;;;1.97;95.19;101957.59;5078146;27;96440;-31
2022/12/07 08:08:43;;;;;;;0.17;0.17;;;;;;;1.97;95.36;101962.94;5077452;27;100083;-31
2022/12/07 08:11:09;;;;;;;1.08;0.63;;;;;;;1.93;95.77;101955.84;5077613;27;98106;-33
2022/12/07 08:13:35;;;;;;;2.28;1.02;;;;;;;1.94;95.22;101963.00;5077999;27;96470;-31
2022/12/07 08:16:05;;;;;;;0.32;0.28;;;;;;;1.97;95.26;101967.41;5077895;27;96821;-31
2022/12/07 08:18:31;;;;;;;0.40;0.35;;;;;;;1.98;95.48;101963.84;5058578;27;101230;-31
2022/12/07 08:21:03;;;;;;;0.52;0.35;;;;;;;1.97;95.39;101957.59;5077356;27;99118;-31
2022/12/07 08:23:28;;;;;;;;;;;;;;;2.01;95.73;101954.03;5058960;27;96898;-31
2022/12/07 08:25:54;;;;;;;0.47;0.47;;;;;;;2.03;95.28;101956.69;5078241;27;96756;-31
2022/12/07 08:28:20;;;;;;;0.17;0.17;;;;;;;2.03;95.39;101957.56;5076834;27;97868;-31
2022/12/07 08:30:45;;;;;;;0.80;0.60;;;;;;;2.04;95.15;101959.34;5077110;27;97907;-31
2022/12/07 08:33:11;;;;;;;0.82;0.47;;;;;;;2.06;94.96;101959.34;5058540;27;96527;-31
2022/12/07 08:35:36;;;;;;;0.95;0.60;;;;;;;2.10;94.96;101963.75;5077559;27;96761;-31
2022/12/07 08:38:02;;;;;;;0.73;0.55;;;;;;;2.11;95.14;101970.84;5077164;27;97292;-31
2022/12/07 08:40:28;;;;;;;4.30;0.60;;;;;;;2.17;95.12;101977.94;5076886;27;99462;-31
2022/12/07 08:42:54;;;;;;;0.60;0.47;;;;;;;2.18;95.11;101977.06;5058910;27;96637;-33
2022/12/07 08:45:21;;;;;;;0.88;0.55;;;;;;;2.23;95.37;101969.88;5077552;27;96765;-31
2022/12/07 08:48:00;;;;;;;0.50;0.40;;;;;;;2.24;95.25;101966.28;5058364;27;100807;-31
2022/12/07 08:50:26;;;;;;;1.90;1.13;;;;;;;2.29;95.48;101973.38;5077067;27;97498;-30
2022/12/07 08:52:54;;;;;;;0.95;0.57;;;;;;;2.31;95.31;101968.91;5058040;27;96565;-30
2022/12/07 08:55:20;;;;;;;0.80;0.55;;;;;;;2.33;95.17;101963.53;5077045;27;96749;-31
2022/12/07 08:57:46;;;;;;;0.30;0.30;;;;;;;2.39;94.95;101970.63;5058151;27;101393;-31
2022/12/07 09:00:12;;;;;;;0.50;0.45;;;;;;;2.45;95.11;101971.44;5057743;27;100927;-30
2022/12/07 09:02:38;;;;;;;0.10;0.10;;;;;;;2.48;95.32;101974.09;5058522;27;96573;-31
2022/12/07 09:05:03;;;;;;;0.20;0.15;;;;;;;2.55;95.28;101970.47;5076754;27;96896;-31
2022/12/07 09:07:31;;;;;;;0.20;0.15;;;;;;;2.63;95.43;101967.69;5076633;27;97888;-31
2022/12/07 09:09:57;;;;;;;0.22;0.13;;;;;;;2.69;95.66;101969.41;5058276;27;100889;-31
2022/12/07 09:12:22;;;;;;;2.58;0.45;;;;;;;2.75;95.83;101954.19;5076539;27;97419;-31
2022/12/07 09:14:47;;;;;;;0.88;0.25;;;;;;;2.84;96.22;101955.00;5077044;27;96755;-31
2022/12/07 09:17:13;;;;;;;0.55;0.50;;;;;;;2.86;96.62;101961.19;5076050;27;97892;-31
2022/12/07 09:19:39;;;;;;;0.52;0.43;;;;;;;2.92;96.17;101953.97;5057196;27;100996;-31
2022/12/07 09:22:04;;;;;;;0.82;0.32;;;;;;;3.02;96.15;101956.56;5075800;27;96663;-30
2022/12/07 09:24:31;;;;;;;1.25;0.30;;;;;;;3.12;96.60;101959.09;5058150;27;96707;-31
2022/12/07 09:26:57;;;;;;;0.22;0.20;;;;;;;3.24;96.29;101963.38;5057468;27;101417;-30
2022/12/07 09:29:22;;;;;;;0.57;0.30;;;;;;;3.34;95.94;101965.06;5057667;27;101069;-31
2022/12/07 09:31:48;;;;;;;0.98;0.85;;;;;;;3.46;96.01;101977.38;5076618;27;96457;-31
2022/12/07 09:34:13;;;;;;;0.10;0.00;;;;;;;3.53;95.49;101971.03;5076880;27;96852;-31
2022/12/07 09:36:38;;;;;;;1.23;0.47;;;;;;;3.56;95.46;101971.00;5076207;27;97363;-31
2022/12/07 09:39:04;;;;;;;1.88;0.32;;;;;;;3.61;95.86;101962.88;5076038;27;97871;-32
2022/12/07 09:41:31;;;;;;;0.00;0.00;;;;;;;3.65;95.69;101964.63;5075779;27;96768;-30
2022/12/07 09:44:04;;;;;;;0.22;0.17;;;;;;;3.68;95.49;101955.66;5057082;27;96766;-31
2022/12/07 09:46:36;;;;;;;0.30;0.22;;;;;;;3.71;96.44;101961.84;5057307;27;101029;-30
2022/12/07 09:49:01;;;;;;;;;;;;;;;3.74;96.56;101953.78;5076489;27;98315;-31
2022/12/07 09:51:27;;;;;;;0.43;0.30;;;;;;;3.77;96.57;101958.19;5076393;27;96599;-30
2022/12/07 09:53:54;;;;;;;1.48;0.17;;;;;;;3.83;96.94;101958.09;5076053;27;96818;-31
2022/12/07 09:56:21;;;;;;;0.38;0.20;;;;;;;3.80;97.25;101947.41;5075818;27;97342;-30
2022/12/07 09:58:48;;;;;;;0.55;0.43;;;;;;;3.79;97.14;101943.88;5057616;27;100868;-30
2022/12/07 10:01:19;;;;;;;3.40;0.68;;;;;;;3.80;97.34;101945.63;5075977;27;96607;-30
2022/12/07 10:03:55;;;;;;;0.30;0.20;;;;;;;3.85;97.24;101955.38;5075920;27;96737;-31
2022/12/07 10:06:21;;;;;;;0.25;0.25;;;;;;;3.78;97.23;101943.88;5056704;27;101498;-31
2022/12/07 10:08:47;;;;;;;0.17;0.15;;;;;;;3.79;97.37;101953.66;5057025;27;100796;-30
2022/12/07 10:11:14;;;;;;;0.55;0.32;;;;;;;3.83;97.37;101947.38;5075768;27;96594;-31
2022/12/07 10:13:49;;;;;;;0.05;0.05;;;;;;;3.94;97.12;101950.75;5057234;27;97991;-30
2022/12/07 10:16:29;;;;;;;0.20;0.10;;;;;;;4.07;96.52;101939.84;5075890;27;97858;-31
2022/12/07 10:18:55;;;;;;;0.28;0.17;;;;;;;4.18;96.52;101935.19;5074718;27;99517;-31
2022/12/07 10:21:25;;;;;;;0.25;0.22;;;;;;;4.33;96.09;101932.22;5057326;27;96630;-31
2022/12/07 10:24:02;;;;;;;0.65;0.50;;;;;;;4.60;95.78;101937.97;5075675;27;96840;-30
2022/12/07 10:26:46;;;;;;;0.73;0.63;;;;;;;4.92;95.21;101940.03;5056925;27;101045;-31
2022/12/07 10:29:17;;;;;;;0.30;0.30;;;;;;;5.08;94.62;101933.41;5075245;27;98978;-31
2022/12/07 10:31:44;;;;;;;0.22;0.22;;;;;;;5.13;93.93;101937.81;5056566;27;96621;-30
2022/12/07 10:34:37;;;;;;;0.55;0.52;;;;;;;5.07;93.74;101933.44;5075572;27;96756;-31
2022/12/07 10:37:08;;;;;;;1.75;0.65;;;;;;;5.01;93.82;101931.78;5070173;27;99108;-31
2022/12/07 10:39:41;;;;;;;0.40;0.30;;;;;;;4.99;94.48;101922.88;5075295;27;97437;-32
2022/12/07 10:42:17;;;;;;;0.47;0.43;;;;;;;5.01;93.61;101915.69;5056909;27;96637;-31
2022/12/07 10:44:43;;;;;;;2.28;0.40;;;;;;;5.56;92.64;101918.94;5075388;27;96719;-30
2022/12/07 10:47:39;;;;;;;0.95;0.52;;;;;;;6.01;91.84;101913.38;5075186;27;97842;-32
2022/12/07 10:50:26;;;;;;;1.17;0.60;;;;;;;5.89;91.01;101916.34;5075767;27;97254;-30
2022/12/07 10:53:15;;;;;;;0.65;0.60;;;;;;;5.90;91.79;101913.59;5075284;27;96626;-30
2022/12/07 10:55:47;;;;;;;0.30;0.30;;;;;;;6.06;90.94;101910.56;5057710;27;96642;-30
2022/12/07 10:58:19;;;;;;;0.32;0.25;;;;;;;5.76;90.40;101907.69;5059792;27;100616;-30
2022/12/07 11:00:50;;;;;;;0.80;0.68;;;;;;;5.60;91.12;101908.97;5078518;27;97903;-30
2022/12/07 11:03:46;;;;;;;1.03;0.77;;;;;;;5.46;91.73;101901.25;5060326;27;96750;-31
2022/12/07 11:06:27;;;;;;;0.68;0.60;;;;;;;5.32;92.67;101902.44;5076651;27;96817;-30
2022/12/07 11:08:59;;;;;;;0.65;0.65;;;;;;;5.27;93.25;101890.06;5078752;27;98474;-30
2022/12/07 11:11:51;;;;;;;0.47;0.37;;;;;;;5.63;93.59;101884.72;5060023;27;99050;-30
2022/12/07 11:14:16;;;;;;;2.65;0.75;;;;;;;5.67;92.88;101878.34;5078883;27;96645;-31
2022/12/07 11:17:08;;;;;;;1.75;0.47;;;;;;;5.52;92.61;101877.78;5079097;27;96801;-31
2022/12/07 11:19:45;;;;;;;1.73;0.32;;;;;;;5.49;93.07;101875.19;5059255;27;99232;-30
2022/12/07 11:22:23;;;;;;;0.88;0.35;;;;;;;5.52;93.61;101868.84;5059526;27;100917;-30
2022/12/07 11:25:02;;;;;;;0.17;0.10;;;;;;;5.54;93.78;101867.91;5059560;27;96489;-30
2022/12/07 11:27:39;;;;;;;0.88;0.47;;;;;;;5.59;93.71;101864.22;5059937;27;96692;-30
2022/12/07 11:30:14;;;;;;;0.25;0.10;;;;;;;5.64;93.60;101862.28;5059617;27;100800;-30
2022/12/07 11:33:04;;;;;;;2.97;0.28;;;;;;;5.78;94.11;101846.69;5078190;27;99147;-30
2022/12/07 11:35:36;;;;;;;0.52;0.13;;;;;;;5.95;93.83;101857.06;5059990;27;96779;-30
2022/12/07 11:38:16;;;;;;;0.95;0.22;;;;;;;6.03;92.52;101843.41;5059932;27;96685;-30
2022/12/07 11:40:49;;;;;;;1.52;0.63;;;;;;;6.11;92.47;101842.28;5059497;27;100762;-32
2022/12/07 11:43:47;;;;;;;0.73;0.25;;;;;;;6.23;92.03;101842.88;5060111;27;100885;-30
2022/12/07 11:46:16;;;;;;;0.88;0.30;;;;;;;6.15;91.73;101835.91;5060186;27;96980;-32